sensor_id;sensor_type;location;lat;lon;timestamp;P1;durP1;ratioP1;P2;durP2;ratioP2
26946;SDS011;14501;52.282;10.560;2023-11-19T00:01:48;0.50;;;0.50;;
26946;SDS011;14501;52.282;10.560;2023-11-19T00:04:14;2.60;;;0.50;;
26946;SDS011;14501;52.282;10.560;2023-11-19T00:06:40;0.55;;;0.55;;
26946;SDS011;14501;52.282;10.560;2023-11-19T00:09:05;1.65;;;1.42;;
26946;SDS011;14501;52.282;10.560;2023-11-19T00:11:33;1.05;;;0.80;;
26946;SDS011;14501;52.282;10.560;2023-11-19T00:13:58;2.25;;;0.63;;
26946;SDS011;14501;52.282;10.560;2023-11-19T00:16:24;0.60;;;0.60;;
26946;SDS011;14501;52.282;10.560;2023-11-19T00:18:49;0.82;;;0.60;;
26946;SDS011;14501;52.282;10.560;2023-11-19T00:21:15;0.50;;;0.50;;
26946;SDS011;14501;52.282;10.560;2023-11-19T00:23:41;0.50;;;0.43;;
26946;SDS011;14501;52.282;10.560;2023-11-19T00:26:06;0.40;;;0.40;;
26946;SDS011;14501;52.282;10.560;2023-11-19T00:28:32;1.13;;;0.50;;
26946;SDS011;14501;52.282;10.560;2023-11-19T00:30:59;0.40;;;0.40;;
26946;SDS011;14501;52.282;10.560;2023-11-19T00:33:24;0.65;;;0.65;;
26946;SDS011;14501;52.282;10.560;2023-11-19T00:35:50;0.45;;;0.38;;
26946;SDS011;14501;52.282;10.560;2023-11-19T00:38:15;0.38;;;0.35;;
26946;SDS011;14501;52.282;10.560;2023-11-19T00:40:41;0.47;;;0.40;;
26946;SDS011;14501;52.282;10.560;2023-11-19T00:43:07;0.70;;;0.50;;
26946;SDS011;14501;52.282;10.560;2023-11-19T00:45:32;0.90;;;0.77;;
26946;SDS011;14501;52.282;10.560;2023-11-19T00:47:58;0.30;;;0.30;;
26946;SDS011;14501;52.282;10.560;2023-11-19T00:50:24;0.57;;;0.40;;
26946;SDS011;14501;52.282;10.560;2023-11-19T00:52:50;0.50;;;0.30;;
26946;SDS011;14501;52.282;10.560;2023-11-19T00:55:16;0.43;;;0.43;;
26946;SDS011;14501;52.282;10.560;2023-11-19T00:57:42;0.82;;;0.52;;
26946;SDS011;14501;52.282;10.560;2023-11-19T01:00:08;0.38;;;0.35;;
26946;SDS011;14501;52.282;10.560;2023-11-19T01:02:43;0.30;;;0.30;;
26946;SDS011;14501;52.282;10.560;2023-11-19T01:05:10;0.32;;;0.32;;
26946;SDS011;14501;52.282;10.560;2023-11-19T01:07:39;0.30;;;0.30;;
26946;SDS011;14501;52.282;10.560;2023-11-19T01:10:05;0.40;;;0.40;;
26946;SDS011;14501;52.282;10.560;2023-11-19T01:12:32;1.35;;;0.57;;
26946;SDS011;14501;52.282;10.560;2023-11-19T01:14:58;0.28;;;0.28;;
26946;SDS011;14501;52.282;10.560;2023-11-19T01:17:23;0.93;;;0.60;;
26946;SDS011;14501;52.282;10.560;2023-11-19T01:19:49;0.40;;;0.30;;
26946;SDS011;14501;52.282;10.560;2023-11-19T01:22:15;0.50;;;0.30;;
26946;SDS011;14501;52.282;10.560;2023-11-19T01:24:41;0.80;;;0.35;;
26946;SDS011;14501;52.282;10.560;2023-11-19T01:27:06;0.40;;;0.30;;
26946;SDS011;14501;52.282;10.560;2023-11-19T01:29:32;1.65;;;0.40;;
26946;SDS011;14501;52.282;10.560;2023-11-19T01:31:58;0.30;;;0.30;;
26946;SDS011;14501;52.282;10.560;2023-11-19T01:34:23;0.32;;;0.32;;
26946;SDS011;14501;52.282;10.560;2023-11-19T01:36:49;0.20;;;0.20;;
26946;SDS011;14501;52.282;10.560;2023-11-19T01:39:15;0.63;;;0.20;;
26946;SDS011;14501;52.282;10.560;2023-11-19T01:41:45;0.20;;;0.20;;
26946;SDS011;14501;52.282;10.560;2023-11-19T01:44:10;0.40;;;0.40;;
26946;SDS011;14501;52.282;10.560;2023-11-19T01:46:40;0.20;;;0.20;;
26946;SDS011;14501;52.282;10.560;2023-11-19T01:49:07;0.30;;;0.30;;
26946;SDS011;14501;52.282;10.560;2023-11-19T01:51:33;3.63;;;0.38;;
26946;SDS011;14501;52.282;10.560;2023-11-19T01:53:59;0.15;;;0.15;;
26946;SDS011;14501;52.282;10.560;2023-11-19T01:56:26;0.30;;;0.30;;
26946;SDS011;14501;52.282;10.560;2023-11-19T01:58:53;0.32;;;0.32;;
26946;SDS011;14501;52.282;10.560;2023-11-19T02:01:19;0.35;;;0.32;;
26946;SDS011;14501;52.282;10.560;2023-11-19T02:03:45;1.67;;;0.38;;
26946;SDS011;14501;52.282;10.560;2023-11-19T02:06:12;0.35;;;0.35;;
26946;SDS011;14501;52.282;10.560;2023-11-19T02:08:38;0.20;;;0.20;;
26946;SDS011;14501;52.282;10.560;2023-11-19T02:11:05;0.20;;;0.20;;
26946;SDS011;14501;52.282;10.560;2023-11-19T02:13:32;0.30;;;0.30;;
26946;SDS011;14501;52.282;10.560;2023-11-19T02:15:58;0.30;;;0.30;;
26946;SDS011;14501;52.282;10.560;2023-11-19T02:18:24;0.40;;;0.40;;
26946;SDS011;14501;52.282;10.560;2023-11-19T02:20:55;0.98;;;0.30;;
26946;SDS011;14501;52.282;10.560;2023-11-19T02:23:21;0.70;;;0.43;;
26946;SDS011;14501;52.282;10.560;2023-11-19T02:25:51;0.30;;;0.30;;
26946;SDS011;14501;52.282;10.560;2023-11-19T02:28:25;0.32;;;0.32;;
26946;SDS011;14501;52.282;10.560;2023-11-19T02:30:51;0.30;;;0.30;;
26946;SDS011;14501;52.282;10.560;2023-11-19T02:33:18;0.70;;;0.60;;
26946;SDS011;14501;52.282;10.560;2023-11-19T02:35:43;1.02;;;0.80;;
26946;SDS011;14501;52.282;10.560;2023-11-19T02:38:09;3.33;;;0.95;;
26946;SDS011;14501;52.282;10.560;2023-11-19T02:40:35;0.50;;;0.50;;
26946;SDS011;14501;52.282;10.560;2023-11-19T02:43:01;0.90;;;0.70;;
26946;SDS011;14501;52.282;10.560;2023-11-19T02:45:29;1.85;;;0.98;;
26946;SDS011;14501;52.282;10.560;2023-11-19T02:47:56;1.63;;;0.90;;
26946;SDS011;14501;52.282;10.560;2023-11-19T02:50:21;1.65;;;1.10;;
26946;SDS011;14501;52.282;10.560;2023-11-19T02:52:51;1.95;;;1.15;;
26946;SDS011;14501;52.282;10.560;2023-11-19T02:55:18;2.33;;;1.10;;
26946;SDS011;14501;52.282;10.560;2023-11-19T02:57:44;1.17;;;0.80;;
26946;SDS011;14501;52.282;10.560;2023-11-19T03:00:20;1.92;;;1.27;;
26946;SDS011;14501;52.282;10.560;2023-11-19T03:02:57;3.72;;;1.20;;
26946;SDS011;14501;52.282;10.560;2023-11-19T03:05:34;1.25;;;1.00;;
26946;SDS011;14501;52.282;10.560;2023-11-19T03:08:00;1.25;;;1.05;;
26946;SDS011;14501;52.282;10.560;2023-11-19T03:10:26;3.25;;;1.17;;
26946;SDS011;14501;52.282;10.560;2023-11-19T03:12:51;1.95;;;0.80;;
26946;SDS011;14501;52.282;10.560;2023-11-19T03:15:17;1.30;;;0.75;;
26946;SDS011;14501;52.282;10.560;2023-11-19T03:17:43;1.45;;;1.05;;
26946;SDS011;14501;52.282;10.560;2023-11-19T03:20:10;1.75;;;0.93;;
26946;SDS011;14501;52.282;10.560;2023-11-19T03:22:40;1.05;;;0.80;;
26946;SDS011;14501;52.282;10.560;2023-11-19T03:25:09;1.85;;;0.88;;
26946;SDS011;14501;52.282;10.560;2023-11-19T03:27:35;0.63;;;0.57;;
26946;SDS011;14501;52.282;10.560;2023-11-19T03:30:02;1.45;;;0.82;;
26946;SDS011;14501;52.282;10.560;2023-11-19T03:32:29;1.42;;;0.93;;
26946;SDS011;14501;52.282;10.560;2023-11-19T03:34:56;2.05;;;1.10;;
26946;SDS011;14501;52.282;10.560;2023-11-19T03:37:22;3.05;;;1.27;;
26946;SDS011;14501;52.282;10.560;2023-11-19T03:39:48;2.20;;;0.90;;
26946;SDS011;14501;52.282;10.560;2023-11-19T03:42:14;2.78;;;1.00;;
26946;SDS011;14501;52.282;10.560;2023-11-19T03:44:40;1.27;;;0.90;;
26946;SDS011;14501;52.282;10.560;2023-11-19T03:47:05;1.15;;;0.90;;
26946;SDS011;14501;52.282;10.560;2023-11-19T03:49:31;0.57;;;0.55;;
26946;SDS011;14501;52.282;10.560;2023-11-19T03:51:57;1.73;;;0.80;;
26946;SDS011;14501;52.282;10.560;2023-11-19T03:54:22;2.88;;;0.70;;
26946;SDS011;14501;52.282;10.560;2023-11-19T03:56:48;0.47;;;0.47;;
26946;SDS011;14501;52.282;10.560;2023-11-19T03:59:14;0.60;;;0.50;;
26946;SDS011;14501;52.282;10.560;2023-11-19T04:01:40;0.50;;;0.40;;
26946;SDS011;14501;52.282;10.560;2023-11-19T04:04:06;1.50;;;0.70;;
26946;SDS011;14501;52.282;10.560;2023-11-19T04:06:31;0.52;;;0.52;;
26946;SDS011;14501;52.282;10.560;2023-11-19T04:08:57;0.38;;;0.38;;
26946;SDS011;14501;52.282;10.560;2023-11-19T04:11:22;0.30;;;0.30;;
26946;SDS011;14501;52.282;10.560;2023-11-19T04:13:48;0.35;;;0.35;;
26946;SDS011;14501;52.282;10.560;2023-11-19T04:16:14;1.35;;;0.60;;
26946;SDS011;14501;52.282;10.560;2023-11-19T04:18:39;1.27;;;0.60;;
26946;SDS011;14501;52.282;10.560;2023-11-19T04:21:08;1.48;;;0.38;;
26946;SDS011;14501;52.282;10.560;2023-11-19T04:23:34;0.60;;;0.60;;
26946;SDS011;14501;52.282;10.560;2023-11-19T04:26:03;0.57;;;0.57;;
26946;SDS011;14501;52.282;10.560;2023-11-19T04:28:30;0.88;;;0.88;;
26946;SDS011;14501;52.282;10.560;2023-11-19T04:30:55;0.60;;;0.60;;
26946;SDS011;14501;52.282;10.560;2023-11-19T04:33:21;0.60;;;0.38;;
26946;SDS011;14501;52.282;10.560;2023-11-19T04:35:46;0.90;;;0.50;;
26946;SDS011;14501;52.282;10.560;2023-11-19T04:38:12;0.57;;;0.57;;
26946;SDS011;14501;52.282;10.560;2023-11-19T04:40:38;0.73;;;0.70;;
26946;SDS011;14501;52.282;10.560;2023-11-19T04:43:03;1.00;;;0.90;;
26946;SDS011;14501;52.282;10.560;2023-11-19T04:45:29;1.00;;;0.70;;
26946;SDS011;14501;52.282;10.560;2023-11-19T04:47:55;0.93;;;0.60;;
26946;SDS011;14501;52.282;10.560;2023-11-19T04:50:20;0.90;;;0.73;;
26946;SDS011;14501;52.282;10.560;2023-11-19T04:52:46;0.80;;;0.80;;
26946;SDS011;14501;52.282;10.560;2023-11-19T04:55:12;1.15;;;1.05;;
26946;SDS011;14501;52.282;10.560;2023-11-19T04:57:39;1.33;;;1.00;;
26946;SDS011;14501;52.282;10.560;2023-11-19T05:00:05;1.33;;;1.05;;
26946;SDS011;14501;52.282;10.560;2023-11-19T05:02:32;1.48;;;0.88;;
26946;SDS011;14501;52.282;10.560;2023-11-19T05:04:59;1.30;;;0.93;;
26946;SDS011;14501;52.282;10.560;2023-11-19T05:07:24;1.63;;;1.13;;
26946;SDS011;14501;52.282;10.560;2023-11-19T05:09:50;1.73;;;1.30;;
26946;SDS011;14501;52.282;10.560;2023-11-19T05:12:16;3.22;;;1.35;;
26946;SDS011;14501;52.282;10.560;2023-11-19T05:14:41;1.70;;;1.52;;
26946;SDS011;14501;52.282;10.560;2023-11-19T05:17:14;3.85;;;1.13;;
26946;SDS011;14501;52.282;10.560;2023-11-19T05:19:39;3.05;;;1.27;;
26946;SDS011;14501;52.282;10.560;2023-11-19T05:22:05;1.13;;;1.00;;
26946;SDS011;14501;52.282;10.560;2023-11-19T05:24:33;2.45;;;1.67;;
26946;SDS011;14501;52.282;10.560;2023-11-19T05:26:59;2.50;;;1.30;;
26946;SDS011;14501;52.282;10.560;2023-11-19T05:29:24;2.83;;;1.17;;
26946;SDS011;14501;52.282;10.560;2023-11-19T05:31:50;1.58;;;1.20;;
26946;SDS011;14501;52.282;10.560;2023-11-19T05:34:16;1.70;;;1.00;;
26946;SDS011;14501;52.282;10.560;2023-11-19T05:36:41;3.25;;;1.20;;
26946;SDS011;14501;52.282;10.560;2023-11-19T05:39:07;1.52;;;1.00;;
26946;SDS011;14501;52.282;10.560;2023-11-19T05:41:32;1.50;;;1.13;;
26946;SDS011;14501;52.282;10.560;2023-11-19T05:43:58;1.92;;;1.30;;
26946;SDS011;14501;52.282;10.560;2023-11-19T05:46:23;0.63;;;0.63;;
26946;SDS011;14501;52.282;10.560;2023-11-19T05:48:50;1.48;;;1.00;;
26946;SDS011;14501;52.282;10.560;2023-11-19T05:51:17;1.38;;;0.98;;
26946;SDS011;14501;52.282;10.560;2023-11-19T05:53:42;1.63;;;1.10;;
26946;SDS011;14501;52.282;10.560;2023-11-19T05:56:08;0.90;;;0.90;;
26946;SDS011;14501;52.282;10.560;2023-11-19T05:58:34;4.57;;;1.33;;
26946;SDS011;14501;52.282;10.560;2023-11-19T06:01:01;2.42;;;0.93;;
26946;SDS011;14501;52.282;10.560;2023-11-19T06:03:27;1.40;;;0.80;;
26946;SDS011;14501;52.282;10.560;2023-11-19T06:05:53;3.42;;;2.03;;
26946;SDS011;14501;52.282;10.560;2023-11-19T06:08:21;1.20;;;0.88;;
26946;SDS011;14501;52.282;10.560;2023-11-19T06:10:47;1.38;;;1.27;;
26946;SDS011;14501;52.282;10.560;2023-11-19T06:13:15;2.33;;;0.90;;
26946;SDS011;14501;52.282;10.560;2023-11-19T06:15:41;1.05;;;0.95;;
26946;SDS011;14501;52.282;10.560;2023-11-19T06:18:07;5.18;;;1.15;;
26946;SDS011;14501;52.282;10.560;2023-11-19T06:20:33;0.70;;;0.70;;
26946;SDS011;14501;52.282;10.560;2023-11-19T06:22:59;1.42;;;0.88;;
26946;SDS011;14501;52.282;10.560;2023-11-19T06:25:25;3.92;;;0.98;;
26946;SDS011;14501;52.282;10.560;2023-11-19T06:27:51;3.22;;;1.13;;
26946;SDS011;14501;52.282;10.560;2023-11-19T06:30:17;4.32;;;2.45;;
26946;SDS011;14501;52.282;10.560;2023-11-19T06:32:43;6.85;;;1.55;;
26946;SDS011;14501;52.282;10.560;2023-11-19T06:35:09;1.25;;;1.15;;
26946;SDS011;14501;52.282;10.560;2023-11-19T06:37:35;10.10;;;1.77;;
26946;SDS011;14501;52.282;10.560;2023-11-19T06:40:03;3.85;;;1.70;;
26946;SDS011;14501;52.282;10.560;2023-11-19T06:42:30;7.75;;;2.38;;
26946;SDS011;14501;52.282;10.560;2023-11-19T06:44:55;1.58;;;1.33;;
26946;SDS011;14501;52.282;10.560;2023-11-19T06:47:22;4.47;;;2.22;;
26946;SDS011;14501;52.282;10.560;2023-11-19T06:49:51;6.40;;;1.70;;
26946;SDS011;14501;52.282;10.560;2023-11-19T06:52:17;1.55;;;1.20;;
26946;SDS011;14501;52.282;10.560;2023-11-19T06:54:42;1.85;;;1.48;;
26946;SDS011;14501;52.282;10.560;2023-11-19T06:57:08;2.45;;;1.40;;
26946;SDS011;14501;52.282;10.560;2023-11-19T06:59:34;2.35;;;1.50;;
26946;SDS011;14501;52.282;10.560;2023-11-19T07:02:00;3.22;;;1.80;;
26946;SDS011;14501;52.282;10.560;2023-11-19T07:04:25;3.55;;;1.55;;
26946;SDS011;14501;52.282;10.560;2023-11-19T07:06:51;5.18;;;1.83;;
26946;SDS011;14501;52.282;10.560;2023-11-19T07:09:18;3.63;;;1.73;;
26946;SDS011;14501;52.282;10.560;2023-11-19T07:11:44;1.65;;;1.35;;
26946;SDS011;14501;52.282;10.560;2023-11-19T07:14:11;4.10;;;1.52;;
26946;SDS011;14501;52.282;10.560;2023-11-19T07:16:37;5.03;;;1.77;;
26946;SDS011;14501;52.282;10.560;2023-11-19T07:19:04;6.10;;;2.33;;
26946;SDS011;14501;52.282;10.560;2023-11-19T07:21:30;3.58;;;1.63;;
26946;SDS011;14501;52.282;10.560;2023-11-19T07:23:57;2.53;;;1.67;;
26946;SDS011;14501;52.282;10.560;2023-11-19T07:26:23;3.78;;;2.22;;
26946;SDS011;14501;52.282;10.560;2023-11-19T07:28:49;3.83;;;1.40;;
26946;SDS011;14501;52.282;10.560;2023-11-19T07:31:15;3.15;;;1.67;;
26946;SDS011;14501;52.282;10.560;2023-11-19T07:33:41;2.38;;;1.85;;
26946;SDS011;14501;52.282;10.560;2023-11-19T07:36:10;3.08;;;1.73;;
26946;SDS011;14501;52.282;10.560;2023-11-19T07:38:37;3.42;;;1.70;;
26946;SDS011;14501;52.282;10.560;2023-11-19T07:41:03;2.00;;;1.30;;
26946;SDS011;14501;52.282;10.560;2023-11-19T07:43:34;3.10;;;1.55;;
26946;SDS011;14501;52.282;10.560;2023-11-19T07:45:59;2.90;;;1.40;;
26946;SDS011;14501;52.282;10.560;2023-11-19T07:48:25;2.15;;;1.63;;
26946;SDS011;14501;52.282;10.560;2023-11-19T07:50:51;3.00;;;1.70;;
26946;SDS011;14501;52.282;10.560;2023-11-19T07:53:18;1.65;;;1.55;;
26946;SDS011;14501;52.282;10.560;2023-11-19T07:55:44;4.68;;;1.52;;
26946;SDS011;14501;52.282;10.560;2023-11-19T07:58:10;4.13;;;1.63;;
26946;SDS011;14501;52.282;10.560;2023-11-19T08:00:36;5.55;;;2.05;;
26946;SDS011;14501;52.282;10.560;2023-11-19T08:03:02;3.97;;;2.45;;
26946;SDS011;14501;52.282;10.560;2023-11-19T08:05:29;4.57;;;2.08;;
26946;SDS011;14501;52.282;10.560;2023-11-19T08:07:54;5.70;;;3.03;;
26946;SDS011;14501;52.282;10.560;2023-11-19T08:10:20;4.22;;;2.53;;
26946;SDS011;14501;52.282;10.560;2023-11-19T08:12:46;4.95;;;2.35;;
26946;SDS011;14501;52.282;10.560;2023-11-19T08:15:12;3.95;;;2.15;;
26946;SDS011;14501;52.282;10.560;2023-11-19T08:17:37;7.65;;;2.60;;
26946;SDS011;14501;52.282;10.560;2023-11-19T08:20:03;8.80;;;2.05;;
26946;SDS011;14501;52.282;10.560;2023-11-19T08:22:30;8.80;;;2.53;;
26946;SDS011;14501;52.282;10.560;2023-11-19T08:24:56;8.40;;;2.20;;
26946;SDS011;14501;52.282;10.560;2023-11-19T08:27:22;4.88;;;2.30;;
26946;SDS011;14501;52.282;10.560;2023-11-19T08:29:54;12.85;;;2.42;;
26946;SDS011;14501;52.282;10.560;2023-11-19T08:32:22;7.60;;;2.65;;
26946;SDS011;14501;52.282;10.560;2023-11-19T08:34:50;8.43;;;2.13;;
26946;SDS011;14501;52.282;10.560;2023-11-19T08:37:16;9.88;;;2.22;;
26946;SDS011;14501;52.282;10.560;2023-11-19T08:39:48;12.18;;;2.63;;
26946;SDS011;14501;52.282;10.560;2023-11-19T08:42:15;6.93;;;2.42;;
26946;SDS011;14501;52.282;10.560;2023-11-19T08:44:42;8.88;;;2.42;;
26946;SDS011;14501;52.282;10.560;2023-11-19T08:47:09;6.55;;;2.05;;
26946;SDS011;14501;52.282;10.560;2023-11-19T08:49:36;12.02;;;3.65;;
26946;SDS011;14501;52.282;10.560;2023-11-19T08:52:01;10.02;;;2.30;;
26946;SDS011;14501;52.282;10.560;2023-11-19T08:54:27;5.47;;;1.73;;
26946;SDS011;14501;52.282;10.560;2023-11-19T08:56:53;5.43;;;2.65;;
26946;SDS011;14501;52.282;10.560;2023-11-19T08:59:18;8.82;;;2.10;;
26946;SDS011;14501;52.282;10.560;2023-11-19T09:01:44;6.85;;;2.13;;
26946;SDS011;14501;52.282;10.560;2023-11-19T09:04:10;5.68;;;1.50;;
26946;SDS011;14501;52.282;10.560;2023-11-19T09:06:35;8.68;;;1.88;;
26946;SDS011;14501;52.282;10.560;2023-11-19T09:09:01;4.25;;;1.80;;
26946;SDS011;14501;52.282;10.560;2023-11-19T09:11:31;8.82;;;2.05;;
26946;SDS011;14501;52.282;10.560;2023-11-19T09:13:57;12.88;;;2.58;;
26946;SDS011;14501;52.282;10.560;2023-11-19T09:16:23;6.13;;;1.48;;
26946;SDS011;14501;52.282;10.560;2023-11-19T09:18:49;8.27;;;2.75;;
26946;SDS011;14501;52.282;10.560;2023-11-19T09:21:15;10.40;;;2.10;;
26946;SDS011;14501;52.282;10.560;2023-11-19T09:23:40;5.60;;;1.90;;
26946;SDS011;14501;52.282;10.560;2023-11-19T09:26:06;3.63;;;1.58;;
26946;SDS011;14501;52.282;10.560;2023-11-19T09:28:35;6.32;;;1.98;;
26946;SDS011;14501;52.282;10.560;2023-11-19T09:31:01;6.93;;;2.15;;
26946;SDS011;14501;52.282;10.560;2023-11-19T09:33:29;8.35;;;2.22;;
26946;SDS011;14501;52.282;10.560;2023-11-19T09:35:55;7.75;;;1.95;;
26946;SDS011;14501;52.282;10.560;2023-11-19T09:38:21;8.25;;;2.53;;
26946;SDS011;14501;52.282;10.560;2023-11-19T09:40:47;9.55;;;2.63;;
26946;SDS011;14501;52.282;10.560;2023-11-19T09:43:13;12.25;;;2.53;;
26946;SDS011;14501;52.282;10.560;2023-11-19T09:45:49;7.82;;;2.08;;
26946;SDS011;14501;52.282;10.560;2023-11-19T09:48:19;14.45;;;2.28;;
26946;SDS011;14501;52.282;10.560;2023-11-19T09:50:47;7.30;;;2.00;;
26946;SDS011;14501;52.282;10.560;2023-11-19T09:53:14;6.28;;;1.95;;
26946;SDS011;14501;52.282;10.560;2023-11-19T09:55:40;7.70;;;1.80;;
26946;SDS011;14501;52.282;10.560;2023-11-19T09:58:06;6.75;;;1.60;;
26946;SDS011;14501;52.282;10.560;2023-11-19T10:00:33;11.02;;;2.10;;
26946;SDS011;14501;52.282;10.560;2023-11-19T10:02:59;5.47;;;1.85;;
26946;SDS011;14501;52.282;10.560;2023-11-19T10:05:25;12.13;;;2.03;;
26946;SDS011;14501;52.282;10.560;2023-11-19T10:07:54;5.85;;;1.98;;
26946;SDS011;14501;52.282;10.560;2023-11-19T10:10:20;9.13;;;1.73;;
26946;SDS011;14501;52.282;10.560;2023-11-19T10:12:46;7.45;;;1.58;;
26946;SDS011;14501;52.282;10.560;2023-11-19T10:15:21;7.68;;;1.80;;
26946;SDS011;14501;52.282;10.560;2023-11-19T10:17:50;7.18;;;1.92;;
26946;SDS011;14501;52.282;10.560;2023-11-19T10:20:16;12.13;;;2.13;;
26946;SDS011;14501;52.282;10.560;2023-11-19T10:22:42;4.88;;;1.70;;
26946;SDS011;14501;52.282;10.560;2023-11-19T10:25:27;10.00;;;2.33;;
26946;SDS011;14501;52.282;10.560;2023-11-19T10:27:54;13.15;;;2.13;;
26946;SDS011;14501;52.282;10.560;2023-11-19T10:30:30;5.82;;;1.40;;
26946;SDS011;14501;52.282;10.560;2023-11-19T10:35:31;15.75;;;2.55;;
26946;SDS011;14501;52.282;10.560;2023-11-19T10:37:58;11.07;;;2.55;;
26946;SDS011;14501;52.282;10.560;2023-11-19T10:40:37;9.05;;;2.47;;
26946;SDS011;14501;52.282;10.560;2023-11-19T10:43:04;6.03;;;1.95;;
26946;SDS011;14501;52.282;10.560;2023-11-19T10:45:31;10.43;;;2.47;;
26946;SDS011;14501;52.282;10.560;2023-11-19T10:47:58;15.23;;;2.83;;
26946;SDS011;14501;52.282;10.560;2023-11-19T10:50:25;9.88;;;2.42;;
26946;SDS011;14501;52.282;10.560;2023-11-19T10:52:53;10.73;;;2.60;;
26946;SDS011;14501;52.282;10.560;2023-11-19T10:55:25;18.40;;;2.58;;
26946;SDS011;14501;52.282;10.560;2023-11-19T10:57:59;7.88;;;1.83;;
26946;SDS011;14501;52.282;10.560;2023-11-19T11:00:28;8.40;;;1.90;;
26946;SDS011;14501;52.282;10.560;2023-11-19T11:03:01;7.32;;;2.35;;
26946;SDS011;14501;52.282;10.560;2023-11-19T11:05:29;9.23;;;2.17;;
26946;SDS011;14501;52.282;10.560;2023-11-19T11:07:58;8.57;;;1.58;;
26946;SDS011;14501;52.282;10.560;2023-11-19T11:10:26;9.90;;;1.90;;
26946;SDS011;14501;52.282;10.560;2023-11-19T11:12:52;6.93;;;1.98;;
26946;SDS011;14501;52.282;10.560;2023-11-19T11:15:24;6.43;;;1.50;;
26946;SDS011;14501;52.282;10.560;2023-11-19T11:17:57;5.90;;;1.83;;
26946;SDS011;14501;52.282;10.560;2023-11-19T11:20:31;11.80;;;2.00;;
26946;SDS011;14501;52.282;10.560;2023-11-19T11:25:52;5.80;;;1.42;;
26946;SDS011;14501;52.282;10.560;2023-11-19T11:28:56;6.75;;;1.90;;
26946;SDS011;14501;52.282;10.560;2023-11-19T11:31:48;9.77;;;1.50;;
26946;SDS011;14501;52.282;10.560;2023-11-19T11:34:53;5.57;;;1.27;;
26946;SDS011;14501;52.282;10.560;2023-11-19T11:37:37;7.55;;;2.00;;
26946;SDS011;14501;52.282;10.560;2023-11-19T11:40:13;8.48;;;1.80;;
26946;SDS011;14501;52.282;10.560;2023-11-19T11:42:41;5.88;;;1.60;;
26946;SDS011;14501;52.282;10.560;2023-11-19T11:45:07;10.40;;;2.30;;
26946;SDS011;14501;52.282;10.560;2023-11-19T11:50:09;9.55;;;2.03;;
26946;SDS011;14501;52.282;10.560;2023-11-19T11:57:53;7.07;;;1.70;;
26946;SDS011;14501;52.282;10.560;2023-11-19T12:00:26;10.65;;;1.92;;
26946;SDS011;14501;52.282;10.560;2023-11-19T12:02:55;12.20;;;2.17;;
26946;SDS011;14501;52.282;10.560;2023-11-19T12:05:22;8.30;;;2.25;;
26946;SDS011;14501;52.282;10.560;2023-11-19T12:07:55;7.60;;;2.42;;
26946;SDS011;14501;52.282;10.560;2023-11-19T12:10:22;8.55;;;1.60;;
26946;SDS011;14501;52.282;10.560;2023-11-19T12:12:49;12.00;;;2.03;;
26946;SDS011;14501;52.282;10.560;2023-11-19T12:15:18;7.57;;;1.90;;
26946;SDS011;14501;52.282;10.560;2023-11-19T12:17:50;7.72;;;1.70;;
26946;SDS011;14501;52.282;10.560;2023-11-19T12:20:26;13.07;;;2.47;;
26946;SDS011;14501;52.282;10.560;2023-11-19T12:22:52;11.82;;;2.50;;
26946;SDS011;14501;52.282;10.560;2023-11-19T12:25:18;11.23;;;2.15;;
26946;SDS011;14501;52.282;10.560;2023-11-19T12:27:49;10.05;;;2.10;;
26946;SDS011;14501;52.282;10.560;2023-11-19T12:30:25;10.75;;;2.20;;
26946;SDS011;14501;52.282;10.560;2023-11-19T12:32:51;10.70;;;2.60;;
26946;SDS011;14501;52.282;10.560;2023-11-19T12:35:20;14.15;;;2.42;;
26946;SDS011;14501;52.282;10.560;2023-11-19T12:37:46;8.85;;;1.90;;
26946;SDS011;14501;52.282;10.560;2023-11-19T12:40:17;14.55;;;3.05;;
26946;SDS011;14501;52.282;10.560;2023-11-19T12:42:43;8.32;;;2.20;;
26946;SDS011;14501;52.282;10.560;2023-11-19T12:45:10;8.82;;;1.75;;
26946;SDS011;14501;52.282;10.560;2023-11-19T12:47:36;7.20;;;1.83;;
26946;SDS011;14501;52.282;10.560;2023-11-19T12:50:02;12.77;;;3.45;;
26946;SDS011;14501;52.282;10.560;2023-11-19T12:52:29;14.95;;;2.15;;
26946;SDS011;14501;52.282;10.560;2023-11-19T12:54:55;12.07;;;2.58;;
26946;SDS011;14501;52.282;10.560;2023-11-19T12:57:35;8.85;;;2.13;;
26946;SDS011;14501;52.282;10.560;2023-11-19T13:00:02;12.27;;;2.33;;
26946;SDS011;14501;52.282;10.560;2023-11-19T13:03:02;11.75;;;2.35;;
26946;SDS011;14501;52.282;10.560;2023-11-19T13:05:22;22.60;;;3.03;;
26946;SDS011;14501;52.282;10.560;2023-11-19T13:07:47;8.75;;;1.83;;
26946;SDS011;14501;52.282;10.560;2023-11-19T13:10:13;9.35;;;2.22;;
26946;SDS011;14501;52.282;10.560;2023-11-19T13:12:40;8.68;;;2.20;;
26946;SDS011;14501;52.282;10.560;2023-11-19T13:15:06;11.70;;;2.08;;
26946;SDS011;14501;52.282;10.560;2023-11-19T13:17:31;12.05;;;2.30;;
26946;SDS011;14501;52.282;10.560;2023-11-19T13:19:57;9.75;;;1.83;;
26946;SDS011;14501;52.282;10.560;2023-11-19T13:22:22;10.63;;;2.15;;
26946;SDS011;14501;52.282;10.560;2023-11-19T13:24:48;11.20;;;2.67;;
26946;SDS011;14501;52.282;10.560;2023-11-19T13:27:14;10.52;;;2.10;;
26946;SDS011;14501;52.282;10.560;2023-11-19T13:29:39;11.43;;;2.17;;
26946;SDS011;14501;52.282;10.560;2023-11-19T13:32:05;13.35;;;2.30;;
26946;SDS011;14501;52.282;10.560;2023-11-19T13:34:31;7.82;;;2.05;;
26946;SDS011;14501;52.282;10.560;2023-11-19T13:36:57;12.48;;;2.08;;
26946;SDS011;14501;52.282;10.560;2023-11-19T13:39:23;10.38;;;2.63;;
26946;SDS011;14501;52.282;10.560;2023-11-19T13:41:49;7.47;;;2.42;;
26946;SDS011;14501;52.282;10.560;2023-11-19T13:44:15;7.70;;;2.30;;
26946;SDS011;14501;52.282;10.560;2023-11-19T13:46:44;8.05;;;2.05;;
26946;SDS011;14501;52.282;10.560;2023-11-19T13:49:10;5.80;;;1.63;;
26946;SDS011;14501;52.282;10.560;2023-11-19T13:51:36;7.47;;;1.77;;
26946;SDS011;14501;52.282;10.560;2023-11-19T13:54:02;5.97;;;2.15;;
26946;SDS011;14501;52.282;10.560;2023-11-19T13:56:28;9.93;;;2.80;;
26946;SDS011;14501;52.282;10.560;2023-11-19T13:58:53;9.32;;;1.67;;
26946;SDS011;14501;52.282;10.560;2023-11-19T14:01:19;4.55;;;1.65;;
26946;SDS011;14501;52.282;10.560;2023-11-19T14:03:44;7.85;;;1.45;;
26946;SDS011;14501;52.282;10.560;2023-11-19T14:06:10;5.50;;;1.92;;
26946;SDS011;14501;52.282;10.560;2023-11-19T14:08:37;7.75;;;1.80;;
26946;SDS011;14501;52.282;10.560;2023-11-19T14:11:03;8.02;;;1.85;;
26946;SDS011;14501;52.282;10.560;2023-11-19T14:13:29;8.48;;;1.65;;
26946;SDS011;14501;52.282;10.560;2023-11-19T14:15:55;9.88;;;2.05;;
26946;SDS011;14501;52.282;10.560;2023-11-19T14:18:21;6.72;;;2.03;;
26946;SDS011;14501;52.282;10.560;2023-11-19T14:20:48;10.45;;;1.75;;
26946;SDS011;14501;52.282;10.560;2023-11-19T14:23:13;3.95;;;1.63;;
26946;SDS011;14501;52.282;10.560;2023-11-19T14:25:39;6.15;;;2.35;;
26946;SDS011;14501;52.282;10.560;2023-11-19T14:28:04;3.85;;;1.63;;
26946;SDS011;14501;52.282;10.560;2023-11-19T14:30:30;11.23;;;2.60;;
26946;SDS011;14501;52.282;10.560;2023-11-19T14:32:56;7.70;;;2.05;;
26946;SDS011;14501;52.282;10.560;2023-11-19T14:35:22;7.40;;;2.40;;
26946;SDS011;14501;52.282;10.560;2023-11-19T14:37:48;8.50;;;2.45;;
26946;SDS011;14501;52.282;10.560;2023-11-19T14:40:14;10.60;;;3.00;;
26946;SDS011;14501;52.282;10.560;2023-11-19T14:42:39;11.20;;;2.25;;
26946;SDS011;14501;52.282;10.560;2023-11-19T14:45:06;7.45;;;1.95;;
26946;SDS011;14501;52.282;10.560;2023-11-19T14:47:32;11.68;;;2.38;;